Time;durP1;ratioP1;P1;durP2;ratioP2;P2;SDS_P1;SDS_P2;PMS_P1;PMS_P2;Temp;Humidity;BMP_temperature;BMP_pressure;BME280_temperature;BME280_humidity;BME280_pressure;Samples;Min_cycle;Max_cycle;Signal;HPM_P1;HPM_P2
2022/08/13 04:45:50;;;;;;;0.30;0.30;;;;;;;;;;7376873;19;20145;-71
2022/08/13 04:48:16;;;;;;;0.30;0.30;;;;;;;;;;7380702;19;20125;-71
2022/08/13 04:50:43;;;;;;;0.37;0.37;;;;;;;;;;7383143;19;20135;-71
2022/08/13 04:53:20;;;;;;;0.60;0.60;;;;;;;;;;7373127;19;20169;-71
2022/08/13 04:55:46;;;;;;;0.40;0.40;;;;;;;;;;7380455;19;20124;-71
2022/08/13 04:58:11;;;;;;;0.30;0.30;;;;;;;;;;7374158;19;20125;-71
2022/08/13 05:00:36;;;;;;;0.30;0.30;;;;;;;;;;7380702;19;20117;-70
2022/08/13 05:03:20;;;;;;;0.30;0.30;;;;;;;;;;7374812;19;20173;-71
2022/08/13 05:05:47;;;;;;;0.30;0.30;;;;;;;;;;7373330;19;20149;-71
2022/08/13 05:08:15;;;;;;;0.30;0.30;;;;;;;;;;7387143;19;20125;-71
2022/08/13 05:10:40;;;;;;;0.73;0.63;;;;;;;;;;7383995;19;20197;-71
2022/08/13 05:13:31;;;;;;;0.30;0.30;;;;;;;;;;7377221;19;20145;-69
2022/08/13 05:15:59;;;;;;;0.63;0.63;;;;;;;;;;7375444;19;20133;-71
2022/08/13 05:18:26;;;;;;;0.60;0.60;;;;;;;;;;7386190;19;20587;-72
2022/08/13 05:20:53;;;;;;;0.40;0.40;;;;;;;;;;7385969;19;20125;-72
2022/08/13 05:23:22;;;;;;;0.30;0.30;;;;;;;;;;7379721;19;20169;-72
2022/08/13 05:25:48;;;;;;;0.30;0.30;;;;;;;;;;7376244;19;20155;-71
2022/08/13 05:28:13;;;;;;;0.30;0.30;;;;;;;;;;7373295;19;20133;-71
2022/08/13 05:30:39;;;;;;;0.30;0.30;;;;;;;;;;7385020;19;20125;-72
2022/08/13 05:33:16;;;;;;;0.30;0.30;;;;;;;;;;7382120;19;20149;-72
2022/08/13 05:35:44;;;;;;;0.30;0.30;;;;;;;;;;7387518;19;20133;-71
2022/08/13 05:38:09;;;;;;;0.33;0.33;;;;;;;;;;7386332;19;20137;-71
2022/08/13 05:40:35;;;;;;;0.33;0.33;;;;;;;;;;7388542;19;20161;-71
2022/08/13 05:43:02;;;;;;;0.30;0.30;;;;;;;;;;7387065;19;20153;-72
2022/08/13 05:45:27;;;;;;;0.60;0.60;;;;;;;;;;7384479;19;20125;-71
2022/08/13 05:47:53;;;;;;;0.30;0.30;;;;;;;;;;7387864;19;20528;-71
2022/08/13 05:50:18;;;;;;;0.30;0.30;;;;;;;;;;7388086;19;20125;-71
2022/08/13 05:52:43;;;;;;;0.30;0.30;;;;;;;;;;7383003;19;20553;-71
2022/08/13 05:55:13;;;;;;;0.30;0.30;;;;;;;;;;7382903;19;20129;-71
2022/08/13 05:57:39;;;;;;;0.30;0.30;;;;;;;;;;7378176;19;20225;-71
2022/08/13 06:05:36;;;;;;;0.30;0.30;;;;;;;;;;7387316;19;20138;-72
2022/08/13 06:08:03;;;;;;;0.30;0.30;;;;;;;;;;7384658;19;20144;-72
2022/08/13 06:10:28;;;;;;;0.40;0.40;;;;;;;;;;7387211;19;20152;-71
2022/08/13 06:12:54;;;;;;;0.30;0.30;;;;;;;;;;7375516;19;20463;-72
2022/08/13 06:15:22;;;;;;;0.30;0.30;;;;;;;;;;7385318;19;20177;-71
2022/08/13 06:17:48;;;;;;;0.30;0.30;;;;;;;;;;7370590;19;20136;-72
2022/08/13 06:20:14;;;;;;;0.30;0.30;;;;;;;;;;7377411;19;20133;-71
2022/08/13 06:22:40;;;;;;;0.30;0.30;;;;;;;;;;7383549;19;20153;-71
2022/08/13 06:25:06;;;;;;;0.33;0.33;;;;;;;;;;7387024;19;20221;-72
2022/08/13 06:27:32;;;;;;;0.30;0.30;;;;;;;;;;7389577;19;20133;-72
2022/08/13 06:29:58;;;;;;;0.30;0.30;;;;;;;;;;7388426;19;20231;-72
2022/08/13 06:32:24;;;;;;;0.30;0.30;;;;;;;;;;7389317;19;20802;-72
2022/08/13 06:34:50;;;;;;;0.30;0.30;;;;;;;;;;7388250;19;20125;-71
2022/08/13 06:37:16;;;;;;;0.30;0.30;;;;;;;;;;7381372;19;20185;-72
2022/08/13 06:39:43;;;;;;;0.53;0.53;;;;;;;;;;7387444;19;20142;-71
2022/08/13 06:42:09;;;;;;;0.30;0.30;;;;;;;;;;7385901;19;20645;-71
2022/08/13 06:44:34;;;;;;;0.30;0.30;;;;;;;;;;7381913;19;20125;-72
2022/08/13 06:47:01;;;;;;;0.30;0.30;;;;;;;;;;7367747;19;20151;-72
2022/08/13 06:49:27;;;;;;;0.30;0.30;;;;;;;;;;7385749;19;21234;-71
2022/08/13 06:51:52;;;;;;;0.33;0.33;;;;;;;;;;7387543;19;20141;-72
2022/08/13 06:54:18;;;;;;;0.37;0.37;;;;;;;;;;7376250;19;20125;-72
2022/08/13 06:56:43;;;;;;;0.40;0.40;;;;;;;;;;7376117;19;20136;-71
2022/08/13 06:59:10;;;;;;;0.30;0.30;;;;;;;;;;7376140;19;20129;-71
2022/08/13 07:01:36;;;;;;;0.30;0.30;;;;;;;;;;7377193;19;20193;-71
2022/08/13 07:04:02;;;;;;;0.40;0.40;;;;;;;;;;7376801;19;20125;-71
2022/08/13 07:06:28;;;;;;;0.40;0.40;;;;;;;;;;7368414;19;20161;-71
2022/08/13 07:08:56;;;;;;;0.30;0.30;;;;;;;;;;7375666;19;20137;-71
2022/08/13 07:11:22;;;;;;;0.30;0.30;;;;;;;;;;7385334;19;20628;-71
2022/08/13 07:13:51;;;;;;;0.30;0.30;;;;;;;;;;7381215;19;20595;-70
2022/08/13 07:16:18;;;;;;;0.60;0.60;;;;;;;;;;7383128;19;20113;-71
2022/08/13 07:18:46;;;;;;;0.30;0.30;;;;;;;;;;7393748;19;20133;-70
2022/08/13 07:21:13;;;;;;;0.38;0.38;;;;;;;;;;7389279;19;20133;-71
2022/08/13 07:23:40;;;;;;;0.40;0.40;;;;;;;;;;7385055;19;20180;-70
2022/08/13 07:26:06;;;;;;;0.30;0.30;;;;;;;;;;7391030;19;20129;-70
2022/08/13 07:28:32;;;;;;;0.30;0.30;;;;;;;;;;7389309;19;20745;-70
2022/08/13 07:30:59;;;;;;;0.30;0.30;;;;;;;;;;7391408;19;20125;-70
2022/08/13 07:33:25;;;;;;;0.40;0.40;;;;;;;;;;7392282;19;20180;-70
2022/08/13 07:35:50;;;;;;;0.40;0.40;;;;;;;;;;7391907;19;20121;-70
2022/08/13 07:38:16;;;;;;;0.30;0.30;;;;;;;;;;7392067;19;20137;-70
2022/08/13 07:40:44;;;;;;;0.30;0.30;;;;;;;;;;7395423;19;20208;-70
2022/08/13 07:43:11;;;;;;;0.30;0.30;;;;;;;;;;7390673;19;20176;-71
2022/08/13 07:45:39;;;;;;;1.15;1.05;;;;;;;;;;7390101;19;20229;-71
2022/08/13 07:48:05;;;;;;;0.30;0.30;;;;;;;;;;7394646;19;20129;-71
2022/08/13 07:50:33;;;;;;;0.30;0.30;;;;;;;;;;7392463;19;20144;-71
2022/08/13 07:52:59;;;;;;;0.40;0.40;;;;;;;;;;7392064;19;20297;-71
2022/08/13 07:55:26;;;;;;;0.50;0.50;;;;;;;;;;7390115;19;20148;-71
2022/08/13 07:57:52;;;;;;;0.30;0.30;;;;;;;;;;7394370;19;20165;-70
2022/08/13 08:00:29;;;;;;;0.30;0.30;;;;;;;;;;7392655;19;20478;-71
2022/08/13 08:03:01;;;;;;;0.50;0.50;;;;;;;;;;7394270;19;20171;-71
2022/08/13 08:05:30;;;;;;;0.30;0.30;;;;;;;;;;7393554;19;20136;-71
2022/08/13 08:07:56;;;;;;;0.30;0.30;;;;;;;;;;7392972;19;20136;-71
2022/08/13 08:10:21;;;;;;;0.40;0.40;;;;;;;;;;7393468;19;20146;-71
2022/08/13 08:12:47;;;;;;;0.40;0.40;;;;;;;;;;7393691;19;20529;-70
2022/08/13 08:15:12;;;;;;;0.43;0.43;;;;;;;;;;7392427;19;20141;-71
2022/08/13 08:17:40;;;;;;;0.38;0.38;;;;;;;;;;7395384;19;20142;-71
2022/08/13 08:20:06;;;;;;;1.05;0.95;;;;;;;;;;7393879;19;20141;-70
2022/08/13 08:22:33;;;;;;;0.30;0.30;;;;;;;;;;7392903;19;20152;-71
2022/08/13 08:24:59;;;;;;;0.38;0.38;;;;;;;;;;7374996;19;20495;-70
2022/08/13 08:27:25;;;;;;;0.40;0.40;;;;;;;;;;7385373;19;20137;-71
2022/08/13 08:29:51;;;;;;;0.50;0.50;;;;;;;;;;7394683;19;20135;-71
2022/08/13 08:32:18;;;;;;;0.30;0.30;;;;;;;;;;7392595;19;20181;-71
2022/08/13 08:34:45;;;;;;;0.85;0.85;;;;;;;;;;7392347;19;20192;-70
2022/08/13 08:42:49;;;;;;;0.30;0.30;;;;;;;;;;7385481;19;20156;-70
2022/08/13 08:45:18;;;;;;;0.30;0.30;;;;;;;;;;7389233;19;20145;-71
2022/08/13 08:47:44;;;;;;;0.38;0.38;;;;;;;;;;7393803;19;20137;-71
2022/08/13 08:50:10;;;;;;;0.40;0.40;;;;;;;;;;7390186;19;20124;-71
2022/08/13 08:55:20;;;;;;;0.40;0.40;;;;;;;;;;7377728;19;20195;-71
2022/08/13 08:57:46;;;;;;;0.35;0.35;;;;;;;;;;7374128;19;20121;-71
2022/08/13 09:00:18;;;;;;;0.40;0.40;;;;;;;;;;7368983;19;20125;-71
2022/08/13 09:02:46;;;;;;;0.30;0.30;;;;;;;;;;7370490;19;20148;-71
2022/08/13 09:05:13;;;;;;;0.30;0.30;;;;;;;;;;7377981;19;20152;-71
2022/08/13 09:07:41;;;;;;;2.08;0.80;;;;;;;;;;7380251;19;20151;-70
2022/08/13 09:10:09;;;;;;;0.40;0.40;;;;;;;;;;7383661;19;20160;-70
2022/08/13 09:12:36;;;;;;;0.43;0.43;;;;;;;;;;7382020;19;20203;-71
2022/08/13 09:15:03;;;;;;;0.40;0.40;;;;;;;;;;7385214;19;20572;-70
2022/08/13 09:17:28;;;;;;;0.30;0.30;;;;;;;;;;7391459;19;20129;-70
2022/08/13 09:19:53;;;;;;;0.60;0.60;;;;;;;;;;7387608;19;20499;-71
2022/08/13 09:22:20;;;;;;;0.40;0.40;;;;;;;;;;7390137;19;20617;-71
2022/08/13 09:24:46;;;;;;;0.30;0.30;;;;;;;;;;7390072;19;20121;-70
2022/08/13 09:27:15;;;;;;;0.40;0.40;;;;;;;;;;7391383;19;20460;-71
2022/08/13 09:29:42;;;;;;;0.77;0.77;;;;;;;;;;7391654;19;20161;-70
2022/08/13 09:32:08;;;;;;;0.30;0.30;;;;;;;;;;7392542;19;20149;-71
2022/08/13 09:34:34;;;;;;;0.68;0.68;;;;;;;;;;7390073;19;20148;-71
2022/08/13 09:37:01;;;;;;;0.30;0.30;;;;;;;;;;7391670;19;20121;-71
2022/08/13 09:39:32;;;;;;;0.30;0.30;;;;;;;;;;7389924;19;20152;-70
2022/08/13 09:42:00;;;;;;;0.50;0.50;;;;;;;;;;7390740;19;20152;-71
2022/08/13 09:44:26;;;;;;;0.30;0.30;;;;;;;;;;7389160;19;20156;-71
2022/08/13 09:46:52;;;;;;;0.40;0.40;;;;;;;;;;7391787;19;20144;-71
2022/08/13 09:49:18;;;;;;;0.30;0.30;;;;;;;;;;7390344;19;20121;-70
2022/08/13 09:51:44;;;;;;;0.57;0.57;;;;;;;;;;7393072;19;20157;-70
2022/08/13 09:54:09;;;;;;;0.30;0.30;;;;;;;;;;7388688;19;20136;-71
2022/08/13 09:56:37;;;;;;;0.30;0.30;;;;;;;;;;7390779;19;20135;-70
2022/08/13 09:59:03;;;;;;;0.85;0.82;;;;;;;;;;7384369;19;20139;-71
2022/08/13 10:01:29;;;;;;;0.40;0.40;;;;;;;;;;7387855;19;20492;-70
2022/08/13 10:03:54;;;;;;;0.63;0.63;;;;;;;;;;7388228;19;20120;-70
2022/08/13 10:06:19;;;;;;;0.30;0.30;;;;;;;;;;7386204;19;20149;-71
2022/08/13 10:08:46;;;;;;;0.40;0.40;;;;;;;;;;7388417;19;20117;-71
2022/08/13 10:11:12;;;;;;;0.30;0.30;;;;;;;;;;7388853;19;20128;-72
2022/08/13 10:13:37;;;;;;;0.32;0.32;;;;;;;;;;7386103;19;20153;-71
2022/08/13 10:16:03;;;;;;;0.40;0.40;;;;;;;;;;7390844;19;20121;-71
2022/08/13 10:18:28;;;;;;;0.40;0.40;;;;;;;;;;7387159;19;20422;-71
2022/08/13 10:20:53;;;;;;;0.40;0.40;;;;;;;;;;7388559;19;20124;-70
2022/08/13 10:23:19;;;;;;;0.50;0.50;;;;;;;;;;7387274;19;20152;-70
2022/08/13 10:25:46;;;;;;;0.38;0.38;;;;;;;;;;7385704;19;20585;-71
2022/08/13 10:28:25;;;;;;;0.30;0.30;;;;;;;;;;7389205;19;20129;-71
2022/08/13 10:30:50;;;;;;;0.32;0.32;;;;;;;;;;7387437;19;20131;-71
2022/08/13 10:33:16;;;;;;;0.30;0.30;;;;;;;;;;7386170;19;20157;-70
2022/08/13 10:35:44;;;;;;;0.50;0.50;;;;;;;;;;7389485;19;20120;-71
2022/08/13 10:38:17;;;;;;;0.45;0.45;;;;;;;;;;7389744;19;20131;-71
2022/08/13 10:40:43;;;;;;;4.68;0.80;;;;;;;;;;7387252;19;20121;-71
2022/08/13 10:43:10;;;;;;;0.30;0.30;;;;;;;;;;7387392;19;20618;-70
2022/08/13 10:45:36;;;;;;;0.50;0.50;;;;;;;;;;7386838;19;20465;-71
2022/08/13 10:48:01;;;;;;;0.30;0.30;;;;;;;;;;7388402;19;20137;-71
2022/08/13 10:50:30;;;;;;;0.55;0.55;;;;;;;;;;7388699;19;20626;-71
2022/08/13 10:52:57;;;;;;;0.35;0.35;;;;;;;;;;7391495;19;20156;-71
2022/08/13 10:55:22;;;;;;;0.32;0.32;;;;;;;;;;7392239;19;20152;-71
2022/08/13 10:57:48;;;;;;;0.63;0.63;;;;;;;;;;7395921;19;20125;-71
2022/08/13 11:00:16;;;;;;;0.30;0.30;;;;;;;;;;7393782;19;20125;-71
2022/08/13 11:02:42;;;;;;;0.40;0.40;;;;;;;;;;7392866;19;20526;-71
2022/08/13 11:05:09;;;;;;;0.50;0.50;;;;;;;;;;7391931;19;20608;-71
2022/08/13 11:07:36;;;;;;;0.60;0.60;;;;;;;;;;7393231;19;20129;-71
2022/08/13 11:10:04;;;;;;;0.43;0.43;;;;;;;;;;7379030;19;20148;-71
2022/08/13 11:12:29;;;;;;;0.40;0.40;;;;;;;;;;7392767;19;20190;-71
2022/08/13 11:14:55;;;;;;;0.40;0.40;;;;;;;;;;7394154;19;20152;-71
2022/08/13 11:17:21;;;;;;;0.30;0.30;;;;;;;;;;7394072;19;20141;-71
2022/08/13 11:19:48;;;;;;;0.50;0.50;;;;;;;;;;7394756;19;20141;-71
2022/08/13 11:22:15;;;;;;;0.68;0.68;;;;;;;;;;7392543;19;20212;-71
2022/08/13 11:24:40;;;;;;;0.30;0.30;;;;;;;;;;7393003;19;20599;-71
2022/08/13 11:27:06;;;;;;;0.38;0.38;;;;;;;;;;7395977;19;20144;-71
2022/08/13 11:29:31;;;;;;;0.40;0.40;;;;;;;;;;7396602;19;20113;-71
2022/08/13 11:31:57;;;;;;;0.40;0.40;;;;;;;;;;7395974;19;20572;-71
2022/08/13 11:34:22;;;;;;;0.40;0.40;;;;;;;;;;7392905;19;20587;-71
2022/08/13 11:36:47;;;;;;;0.40;0.40;;;;;;;;;;7394978;19;20125;-71
2022/08/13 11:39:13;;;;;;;1.10;1.10;;;;;;;;;;7394372;19;20587;-71
2022/08/13 11:41:38;;;;;;;0.70;0.70;;;;;;;;;;7394194;19;20137;-71
2022/08/13 11:44:04;;;;;;;0.40;0.40;;;;;;;;;;7393051;19;20117;-72
2022/08/13 11:46:29;;;;;;;0.70;0.70;;;;;;;;;;7394859;19;20725;-72
2022/08/13 11:48:55;;;;;;;0.50;0.50;;;;;;;;;;7394672;19;20224;-72
2022/08/13 11:51:20;;;;;;;0.40;0.40;;;;;;;;;;7394499;19;20219;-72
2022/08/13 11:53:45;;;;;;;0.50;0.50;;;;;;;;;;7390933;19;20574;-72
2022/08/13 11:56:11;;;;;;;0.40;0.40;;;;;;;;;;7393449;19;20133;-72
2022/08/13 11:58:36;;;;;;;0.47;0.47;;;;;;;;;;7395672;19;20125;-72
2022/08/13 12:01:06;;;;;;;0.50;0.50;;;;;;;;;;7393895;19;20167;-72
2022/08/13 12:03:32;;;;;;;0.50;0.50;;;;;;;;;;7391534;19;20156;-72
2022/08/13 12:05:58;;;;;;;0.60;0.60;;;;;;;;;;7392350;19;20497;-72
2022/08/13 12:08:24;;;;;;;0.50;0.50;;;;;;;;;;7395841;19;20154;-72
2022/08/13 12:10:49;;;;;;;0.50;0.50;;;;;;;;;;7395689;19;20132;-72
2022/08/13 12:13:15;;;;;;;0.50;0.50;;;;;;;;;;7394708;19;20153;-72
2022/08/13 12:15:40;;;;;;;0.50;0.50;;;;;;;;;;7394543;19;20144;-72
2022/08/13 12:18:06;;;;;;;0.50;0.50;;;;;;;;;;7393084;19;20117;-72
2022/08/13 12:20:31;;;;;;;0.85;0.85;;;;;;;;;;7394553;19;20124;-72
2022/08/13 12:22:58;;;;;;;0.60;0.60;;;;;;;;;;7393502;19;20151;-72
2022/08/13 12:25:27;;;;;;;0.57;0.57;;;;;;;;;;7391392;19;20195;-72
2022/08/13 12:28:18;;;;;;;0.75;0.75;;;;;;;;;;7392380;19;20154;-72
2022/08/13 12:30:46;;;;;;;0.50;0.50;;;;;;;;;;7386271;19;20148;-72
2022/08/13 12:33:11;;;;;;;0.50;0.50;;;;;;;;;;7389301;19;20140;-72
2022/08/13 12:35:37;;;;;;;0.50;0.50;;;;;;;;;;7389828;19;20127;-73
2022/08/13 12:38:08;;;;;;;0.50;0.50;;;;;;;;;;7390861;19;20127;-73
2022/08/13 12:40:33;;;;;;;0.60;0.60;;;;;;;;;;7392879;19;20485;-72
2022/08/13 12:42:58;;;;;;;0.60;0.60;;;;;;;;;;7388891;19;20211;-73
2022/08/13 12:45:24;;;;;;;0.50;0.50;;;;;;;;;;7389962;19;20149;-72
2022/08/13 12:47:49;;;;;;;0.50;0.50;;;;;;;;;;7390737;19;20172;-72
2022/08/13 12:50:14;;;;;;;0.60;0.60;;;;;;;;;;7392534;19;20120;-73
2022/08/13 12:52:40;;;;;;;0.55;0.55;;;;;;;;;;7388806;19;21058;-72
2022/08/13 12:55:06;;;;;;;0.68;0.68;;;;;;;;;;7388687;19;20160;-73
2022/08/13 12:57:31;;;;;;;0.60;0.60;;;;;;;;;;7391020;19;20125;-72
2022/08/13 12:59:56;;;;;;;0.68;0.68;;;;;;;;;;7391241;19;20127;-74
2022/08/13 13:02:23;;;;;;;0.70;0.70;;;;;;;;;;7387529;19;20159;-72
2022/08/13 13:04:49;;;;;;;0.50;0.50;;;;;;;;;;7387028;19;20148;-73
2022/08/13 13:07:14;;;;;;;0.68;0.68;;;;;;;;;;7387395;19;20132;-73
2022/08/13 13:09:40;;;;;;;0.73;0.73;;;;;;;;;;7379426;19;20136;-73
2022/08/13 13:12:06;;;;;;;0.60;0.60;;;;;;;;;;7378204;19;20144;-73
2022/08/13 13:14:31;;;;;;;0.70;0.70;;;;;;;;;;7383347;19;20127;-73
2022/08/13 13:16:56;;;;;;;0.65;0.65;;;;;;;;;;7391093;19;20580;-73
2022/08/13 13:19:22;;;;;;;0.95;0.95;;;;;;;;;;7383107;19;20135;-72
2022/08/13 13:21:47;;;;;;;0.55;0.55;;;;;;;;;;7382784;19;20157;-72
2022/08/13 13:24:14;;;;;;;0.60;0.60;;;;;;;;;;7379906;19;20120;-73
2022/08/13 13:26:40;;;;;;;0.50;0.50;;;;;;;;;;7380050;19;20476;-73
2022/08/13 13:29:06;;;;;;;0.57;0.57;;;;;;;;;;7379617;19;20929;-73
2022/08/13 13:31:31;;;;;;;0.60;0.60;;;;;;;;;;7388819;19;20136;-73
2022/08/13 13:33:57;;;;;;;0.50;0.50;;;;;;;;;;7390195;19;20120;-72
2022/08/13 13:36:22;;;;;;;0.60;0.60;;;;;;;;;;7389112;19;20132;-74
2022/08/13 13:38:47;;;;;;;0.60;0.60;;;;;;;;;;7389965;19;20128;-74
2022/08/13 13:41:13;;;;;;;0.50;0.50;;;;;;;;;;7386198;19;20116;-72
2022/08/13 13:43:38;;;;;;;0.50;0.50;;;;;;;;;;7385520;19;20550;-72
2022/08/13 13:46:04;;;;;;;0.60;0.60;;;;;;;;;;7386106;19;20159;-72
2022/08/13 13:48:36;;;;;;;0.65;0.65;;;;;;;;;;7388968;19;20137;-74
2022/08/13 13:51:04;;;;;;;0.50;0.50;;;;;;;;;;7387165;19;20152;-74
2022/08/13 13:53:32;;;;;;;0.60;0.60;;;;;;;;;;7384236;19;20149;-74
2022/08/13 13:55:59;;;;;;;0.50;0.50;;;;;;;;;;7379642;19;20212;-74
2022/08/13 13:58:26;;;;;;;0.50;0.50;;;;;;;;;;7385578;19;20131;-74
2022/08/13 14:00:53;;;;;;;0.75;0.75;;;;;;;;;;7390112;19;20128;-72
2022/08/13 14:03:18;;;;;;;0.68;0.68;;;;;;;;;;7377204;19;20199;-74
2022/08/13 14:05:44;;;;;;;0.50;0.50;;;;;;;;;;7382415;19;20192;-74
2022/08/13 14:08:11;;;;;;;0.50;0.50;;;;;;;;;;7388027;19;20132;-74
2022/08/13 14:10:38;;;;;;;0.40;0.40;;;;;;;;;;7388562;19;20128;-74
2022/08/13 14:13:04;;;;;;;0.50;0.50;;;;;;;;;;7388444;19;20525;-74
2022/08/13 14:15:33;;;;;;;0.50;0.50;;;;;;;;;;7388893;19;20121;-74
2022/08/13 14:18:08;;;;;;;0.50;0.50;;;;;;;;;;7384420;19;20519;-74
2022/08/13 14:20:35;;;;;;;0.50;0.50;;;;;;;;;;7378407;19;20128;-74
2022/08/13 14:23:00;;;;;;;0.40;0.40;;;;;;;;;;7381382;19;20176;-74
2022/08/13 14:25:26;;;;;;;0.50;0.50;;;;;;;;;;7385242;19;20522;-74
2022/08/13 14:27:51;;;;;;;0.40;0.40;;;;;;;;;;7389720;19;20133;-74
2022/08/13 14:30:17;;;;;;;0.50;0.50;;;;;;;;;;7389789;19;20124;-74
2022/08/13 14:32:42;;;;;;;0.55;0.55;;;;;;;;;;7387945;19;20149;-74
2022/08/13 14:35:11;;;;;;;0.40;0.40;;;;;;;;;;7387540;19;20121;-74
2022/08/13 14:37:39;;;;;;;0.50;0.50;;;;;;;;;;7387967;19;20120;-74
2022/08/13 14:40:06;;;;;;;0.40;0.40;;;;;;;;;;7389902;19;20502;-73
2022/08/13 14:42:41;;;;;;;0.40;0.40;;;;;;;;;;7387301;19;20678;-73
2022/08/13 14:47:52;;;;;;;1.58;0.50;;;;;;;;;;7386489;19;20131;-73
2022/08/13 14:50:19;;;;;;;0.40;0.40;;;;;;;;;;7385754;19;20154;-74
2022/08/13 14:52:46;;;;;;;0.40;0.40;;;;;;;;;;7387494;19;20557;-73
2022/08/13 14:55:12;;;;;;;0.40;0.40;;;;;;;;;;7384118;19;20125;-73
2022/08/13 14:57:38;;;;;;;0.47;0.47;;;;;;;;;;7385060;19;20142;-73
2022/08/13 15:00:05;;;;;;;0.30;0.30;;;;;;;;;;7375649;19;20583;-73
2022/08/13 15:02:32;;;;;;;0.30;0.30;;;;;;;;;;7383826;19;20141;-73
2022/08/13 15:04:57;;;;;;;0.40;0.40;;;;;;;;;;7372188;19;20815;-71
2022/08/13 15:07:22;;;;;;;0.30;0.30;;;;;;;;;;7386262;19;20723;-73
2022/08/13 15:09:49;;;;;;;0.50;0.50;;;;;;;;;;7387837;19;20137;-73
2022/08/13 15:12:14;;;;;;;0.60;0.60;;;;;;;;;;7385895;19;20557;-74
2022/08/13 15:14:40;;;;;;;0.40;0.40;;;;;;;;;;7386158;19;20121;-73
2022/08/13 15:17:05;;;;;;;0.40;0.40;;;;;;;;;;7385714;19;20606;-73
2022/08/13 15:19:32;;;;;;;0.30;0.30;;;;;;;;;;7382180;19;20129;-73
2022/08/13 15:21:57;;;;;;;0.32;0.32;;;;;;;;;;7385913;19;20562;-73
2022/08/13 15:24:29;;;;;;;0.40;0.40;;;;;;;;;;7386125;19;20139;-73
2022/08/13 15:26:54;;;;;;;0.40;0.40;;;;;;;;;;7387172;19;20152;-73
2022/08/13 15:29:20;;;;;;;0.30;0.30;;;;;;;;;;7369921;19;20117;-73
2022/08/13 15:31:45;;;;;;;0.52;0.52;;;;;;;;;;7369541;19;20184;-73
2022/08/13 15:34:11;;;;;;;0.63;0.57;;;;;;;;;;7381165;19;20150;-73
2022/08/13 15:36:38;;;;;;;0.40;0.40;;;;;;;;;;7373963;19;20125;-73
2022/08/13 15:39:04;;;;;;;0.30;0.30;;;;;;;;;;7394626;19;20132;-73
2022/08/13 15:41:29;;;;;;;0.45;0.45;;;;;;;;;;7391200;19;20129;-73
2022/08/13 15:43:55;;;;;;;0.40;0.40;;;;;;;;;;7388280;19;20117;-73
2022/08/13 15:46:20;;;;;;;0.40;0.40;;;;;;;;;;7388744;19;20690;-73
2022/08/13 15:48:46;;;;;;;0.40;0.40;;;;;;;;;;7391013;19;20170;-73
2022/08/13 15:51:11;;;;;;;0.82;0.82;;;;;;;;;;7390166;19;20125;-73
2022/08/13 15:53:37;;;;;;;0.68;0.68;;;;;;;;;;7391255;19;20145;-73
2022/08/13 15:56:02;;;;;;;0.40;0.40;;;;;;;;;;7392133;19;20121;-73
2022/08/13 15:58:28;;;;;;;0.38;0.38;;;;;;;;;;7394493;19;20141;-70
2022/08/13 16:00:53;;;;;;;0.38;0.38;;;;;;;;;;7394517;19;20229;-71
2022/08/13 16:03:19;;;;;;;0.40;0.40;;;;;;;;;;7391696;19;20145;-70
2022/08/13 16:05:46;;;;;;;0.40;0.40;;;;;;;;;;7387695;19;20162;-73
2022/08/13 16:08:12;;;;;;;0.30;0.30;;;;;;;;;;7393721;19;20137;-73
2022/08/13 16:10:38;;;;;;;0.30;0.30;;;;;;;;;;7392099;19;20168;-73
2022/08/13 16:13:06;;;;;;;0.80;0.57;;;;;;;;;;7380863;19;20750;-73
2022/08/13 16:15:33;;;;;;;0.57;0.32;;;;;;;;;;7388413;19;20611;-73
2022/08/13 16:17:59;;;;;;;0.40;0.40;;;;;;;;;;7373576;19;20156;-73
2022/08/13 16:20:27;;;;;;;0.40;0.40;;;;;;;;;;7378215;19;20129;-73
2022/08/13 16:22:54;;;;;;;0.35;0.35;;;;;;;;;;7377487;19;20149;-73
2022/08/13 16:25:21;;;;;;;0.35;0.35;;;;;;;;;;7381191;19;20129;-73
2022/08/13 16:27:54;;;;;;;0.40;0.40;;;;;;;;;;7382423;19;20129;-73
2022/08/13 16:30:22;;;;;;;0.70;0.70;;;;;;;;;;7359767;19;20587;-74
2022/08/13 16:32:48;;;;;;;0.30;0.30;;;;;;;;;;7375822;19;20153;-73
2022/08/13 16:35:13;;;;;;;0.32;0.32;;;;;;;;;;7378603;19;20128;-74
2022/08/13 16:37:39;;;;;;;0.32;0.32;;;;;;;;;;7386851;19;20131;-74
2022/08/13 16:40:05;;;;;;;0.40;0.40;;;;;;;;;;7390558;19;20132;-73
2022/08/13 16:42:32;;;;;;;0.50;0.50;;;;;;;;;;7389450;19;20532;-73
2022/08/13 16:45:00;;;;;;;0.30;0.30;;;;;;;;;;7390227;19;20504;-73
2022/08/13 16:47:26;;;;;;;0.30;0.30;;;;;;;;;;7384940;19;20464;-73
2022/08/13 16:49:51;;;;;;;0.90;0.90;;;;;;;;;;7375344;19;20136;-72
2022/08/13 16:52:16;;;;;;;0.40;0.40;;;;;;;;;;7374179;19;20154;-73
2022/08/13 16:54:57;;;;;;;0.40;0.40;;;;;;;;;;7375470;19;20156;-73
2022/08/13 16:57:22;;;;;;;0.40;0.40;;;;;;;;;;7384034;19;20124;-73
2022/08/13 16:59:48;;;;;;;0.30;0.30;;;;;;;;;;7388023;19;21631;-73
2022/08/13 17:02:22;;;;;;;0.30;0.30;;;;;;;;;;7388384;19;20615;-72
2022/08/13 17:10:15;;;;;;;0.65;0.50;;;;;;;;;;7391558;19;20606;-72
2022/08/13 17:12:41;;;;;;;0.40;0.40;;;;;;;;;;7384721;19;20144;-73
2022/08/13 17:15:06;;;;;;;0.40;0.40;;;;;;;;;;7386666;19;20179;-73
2022/08/13 17:17:34;;;;;;;0.30;0.30;;;;;;;;;;7388938;19;20156;-73
2022/08/13 17:20:00;;;;;;;0.30;0.30;;;;;;;;;;7388738;19;20141;-73
2022/08/13 17:22:26;;;;;;;0.40;0.40;;;;;;;;;;7389418;19;21200;-72
2022/08/13 17:24:51;;;;;;;0.40;0.40;;;;;;;;;;7387683;19;20609;-73
2022/08/13 17:27:16;;;;;;;0.40;0.40;;;;;;;;;;7390573;19;20136;-73
2022/08/13 17:29:42;;;;;;;0.52;0.52;;;;;;;;;;7388493;19;20148;-73
2022/08/13 17:32:10;;;;;;;0.30;0.30;;;;;;;;;;7389416;19;20241;-73
2022/08/13 17:34:36;;;;;;;0.40;0.40;;;;;;;;;;7386209;19;20208;-72
2022/08/13 17:37:01;;;;;;;0.30;0.30;;;;;;;;;;7389090;19;20170;-72
2022/08/13 17:39:27;;;;;;;0.30;0.30;;;;;;;;;;7388455;19;20156;-73
2022/08/13 17:41:55;;;;;;;0.47;0.47;;;;;;;;;;7388492;19;20140;-73
2022/08/13 17:44:21;;;;;;;0.30;0.30;;;;;;;;;;7385694;19;20151;-73
2022/08/13 17:46:47;;;;;;;0.40;0.40;;;;;;;;;;7390225;19;20670;-72
2022/08/13 17:49:20;;;;;;;0.45;0.38;;;;;;;;;;7388582;19;20496;-72
2022/08/13 17:51:50;;;;;;;13.30;0.80;;;;;;;;;;7388918;19;20144;-73
2022/08/13 17:54:15;;;;;;;0.50;0.50;;;;;;;;;;7384362;19;20152;-73
2022/08/13 17:56:42;;;;;;;0.32;0.32;;;;;;;;;;7386038;19;20128;-73
2022/08/13 17:59:07;;;;;;;0.40;0.40;;;;;;;;;;7388158;19;20125;-72
2022/08/13 18:01:34;;;;;;;0.50;0.50;;;;;;;;;;7386796;19;20527;-73
2022/08/13 18:04:01;;;;;;;0.35;0.35;;;;;;;;;;7379446;19;20152;-72
2022/08/13 18:06:29;;;;;;;0.40;0.40;;;;;;;;;;7378330;19;20125;-73
2022/08/13 18:09:00;;;;;;;0.40;0.40;;;;;;;;;;7373344;19;20121;-72
2022/08/13 18:11:25;;;;;;;0.45;0.45;;;;;;;;;;7382288;19;20128;-73
2022/08/13 18:13:50;;;;;;;0.40;0.40;;;;;;;;;;7385319;19;20201;-73
2022/08/13 18:16:16;;;;;;;0.30;0.30;;;;;;;;;;7385030;19;20647;-72
2022/08/13 18:18:41;;;;;;;0.30;0.30;;;;;;;;;;7388382;19;20125;-73
2022/08/13 18:21:06;;;;;;;0.30;0.30;;;;;;;;;;7384952;19;20154;-72
2022/08/13 18:23:32;;;;;;;0.30;0.30;;;;;;;;;;7376733;19;20198;-72
2022/08/13 18:25:57;;;;;;;0.30;0.30;;;;;;;;;;7366252;19;20162;-73
2022/08/13 18:28:24;;;;;;;0.40;0.40;;;;;;;;;;7369236;19;20158;-72
2022/08/13 18:30:49;;;;;;;0.30;0.30;;;;;;;;;;7386111;19;20131;-72
2022/08/13 18:33:17;;;;;;;0.30;0.30;;;;;;;;;;7385244;19;20145;-72
2022/08/13 18:35:42;;;;;;;0.30;0.30;;;;;;;;;;7375033;19;20129;-70
2022/08/13 18:38:08;;;;;;;0.30;0.30;;;;;;;;;;7387541;19;20579;-70
2022/08/13 18:40:33;;;;;;;0.30;0.30;;;;;;;;;;7386684;19;20579;-70
2022/08/13 18:42:59;;;;;;;0.30;0.30;;;;;;;;;;7379282;19;20178;-70
2022/08/13 18:45:25;;;;;;;0.30;0.30;;;;;;;;;;7366367;19;20171;-72
2022/08/13 18:47:51;;;;;;;0.30;0.30;;;;;;;;;;7366687;19;20564;-73
2022/08/13 18:50:23;;;;;;;0.30;0.30;;;;;;;;;;7373722;19;20176;-73
2022/08/13 18:52:48;;;;;;;0.30;0.30;;;;;;;;;;7379661;19;20587;-71
2022/08/13 18:55:19;;;;;;;0.30;0.30;;;;;;;;;;7377100;19;20167;-71
2022/08/13 18:57:45;;;;;;;0.30;0.30;;;;;;;;;;7375494;19;20158;-71
2022/08/13 19:00:13;;;;;;;0.30;0.30;;;;;;;;;;7360923;19;20125;-71
2022/08/13 19:02:41;;;;;;;0.50;0.50;;;;;;;;;;7365973;19;20140;-70
2022/08/13 19:05:08;;;;;;;0.30;0.30;;;;;;;;;;7370888;19;20127;-70
2022/08/13 19:07:33;;;;;;;0.30;0.30;;;;;;;;;;7380137;19;20145;-71
2022/08/13 19:09:59;;;;;;;0.40;0.40;;;;;;;;;;7359833;19;20141;-71
2022/08/13 19:12:25;;;;;;;0.35;0.35;;;;;;;;;;7363587;19;20770;-70
2022/08/13 19:14:50;;;;;;;0.30;0.30;;;;;;;;;;7387612;19;20125;-71
2022/08/13 19:17:19;;;;;;;0.30;0.30;;;;;;;;;;7379344;19;20132;-70
2022/08/13 19:19:45;;;;;;;0.45;0.45;;;;;;;;;;7389833;19;20125;-71
2022/08/13 19:22:10;;;;;;;0.30;0.30;;;;;;;;;;7394747;19;20141;-71
2022/08/13 19:24:36;;;;;;;0.30;0.30;;;;;;;;;;7391635;19;20181;-71
2022/08/13 19:27:02;;;;;;;0.40;0.40;;;;;;;;;;7393999;19;20224;-71
2022/08/13 19:29:29;;;;;;;0.77;0.77;;;;;;;;;;7384965;19;20137;-71
2022/08/13 19:31:57;;;;;;;0.30;0.30;;;;;;;;;;7390078;19;20169;-70
2022/08/13 19:34:23;;;;;;;0.35;0.35;;;;;;;;;;7389381;19;20129;-70
2022/08/13 19:36:48;;;;;;;0.43;0.43;;;;;;;;;;7393550;19;20172;-71
2022/08/13 19:39:13;;;;;;;0.30;0.30;;;;;;;;;;7387040;19;20501;-71
2022/08/13 19:41:39;;;;;;;0.30;0.30;;;;;;;;;;7389789;19;20465;-70
2022/08/13 19:44:05;;;;;;;0.60;0.60;;;;;;;;;;7384500;19;20129;-70
2022/08/13 19:46:31;;;;;;;0.30;0.30;;;;;;;;;;7393224;19;20141;-71